Wetter

Link zur aktuellen Windanzeige


Nordholz:

METAR:

2020/12/01 14:45 ETMN 011445Z 06008KT 7000 BKN005 05/04 Q1017 YLO YLO TEMPO GRN

TAF:

2020/12/01 15:00 TAF ETMN 011422Z 0115/0124 06008KT 7000 NSW BKN004 BKN007 TEMPO 0115/0117 06010KT 8000 NSW SCT004 BKN007 TEMPO 0118/0124 08005KT 3000 BR BKN004

Wind EDXN:

01.12. 13:40z 050/11G14kt
01.12. 13:50z 040/08G13kt
01.12. 14:00z 050/09G12kt
01.12. 14:10z 050/10G13kt
01.12. 14:20z 060/09G13kt
01.12. 14:30z 060/09kt
01.12. 14:40z 050/09G12kt
01.12. 14:50z 050/08G12kt
01.12. 15:00z 050/08kt
01.12. 15:10z 050/09kt

Bremen:

METAR:

2020/12/01 14:50 EDDW 011450Z 05008KT 8000 BKN004 05/05 Q1016 TEMPO 4500 -DZ

TAF:

2020/12/01 12:27 TAF EDDW 011100Z 0112/0212 04006KT 2000 BR OVC003 BECMG 0112/0115 4000 TEMPO 0112/0212 6000 BECMG 0115/0118 OVC005 PROB30 TEMPO 0118/0212 OVC004

Hamburg:

METAR:

2020/12/01 14:50 EDDH 011450Z 08008KT 6000 OVC005 04/03 Q1017 TEMPO 4500 BR BKN004

TAF:

2020/12/01 12:27 TAF EDDH 011100Z 0112/0218 07005KT 4000 BR OVC004 TEMPO 0112/0218 6000 BECMG 0115/0118 OVC006 TEMPO 0122/0209 SCT007 BKN012 PROB30 TEMPO 0200/0206 SCT012 BKN015 BECMG 0207/0209 13004KT BECMG 0209/0212 BKN012

Hannover:

METAR:

2020/12/01 14:50 EDDV 011450Z 12003KT 060V170 5000 -DZ FEW003 BKN004 04/04 Q1016 TEMPO 4000

TAF:

2020/12/01 12:28 TAF EDDV 011100Z 0112/0212 15005KT 4500 BR OVC005 TEMPO 0112/0202 2500 -DZ OVC004 BECMG 0114/0117 08005KT TEMPO 0204/0212 SCT007 BKN012

Wikipedia Artikel: METARTAF

Daten von Aviation Weather Center der NOAA, es kann keine Garantie für Aktualität und Richtigkeit der Daten übernommen werden.

Die Nutzung dieser Daten zur Flugplanung ist nicht zulässig!

Inoffizielle ATIS 🙂